Genoa, West Virginia
Current Conditions -  °F | °C
As of 8:51 AM on Sunday 23 Nov 2014 (Local Time) from KHTS Reporting Station
Broken Clouds Broken Clouds  
Wind Chill: 47°   Ceiling: 11000
Heat Index: 49°   Visibility: 10mi
Dew Point: 34°   Wind: 5mph
Humidity: 56%   Direction: 110°ESE
Pressure: 30.03"   Gusts: NA
Location:  38.12°N, 82.46°W
Report Text: KHTS 231351Z AUTO 11004KT 10SM BKN110 09/01 A3003 RMK AO2 SLP170 T00940011 TSNO
Loading
Personal Weather Stations






























Interactive Weather Map New forecast layout! Learn more

10-Day Weather Forecast

Advertisements
Track Severe Weather on mobile